sensor_id;sensor_type;location;lat;lon;timestamp;pressure;altitude;pressure_sealevel;temperature;humidity
7407;BME280;3745;56.964;24.128;2023-02-23T00:01:24;102126.81;;;-7.83;100.00
7407;BME280;3745;56.964;24.128;2023-02-23T00:03:52;102292.50;;;-6.90;100.00
7407;BME280;3745;56.964;24.128;2023-02-23T00:06:19;102278.06;;;-6.87;100.00
7407;BME280;3745;56.964;24.128;2023-02-23T00:08:45;102301.00;;;-6.80;100.00
7407;BME280;3745;56.964;24.128;2023-02-23T00:11:13;102238.97;;;-7.16;100.00
7407;BME280;3745;56.964;24.128;2023-02-23T00:13:39;102320.81;;;-6.71;100.00
7407;BME280;3745;56.964;24.128;2023-02-23T00:16:11;102278.22;;;-6.86;100.00
7407;BME280;3745;56.964;24.128;2023-02-23T00:18:45;102311.94;;;-6.62;100.00
7407;BME280;3745;56.964;24.128;2023-02-23T00:21:21;102246.75;;;-7.04;100.00
7407;BME280;3745;56.964;24.128;2023-02-23T00:23:53;102250.88;;;-7.11;100.00
7407;BME280;3745;56.964;24.128;2023-02-23T00:26:21;102256.44;;;-7.05;100.00
7407;BME280;3745;56.964;24.128;2023-02-23T00:28:48;102173.25;;;-7.48;100.00
7407;BME280;3745;56.964;24.128;2023-02-23T00:31:15;102315.91;;;-6.71;100.00
7407;BME280;3745;56.964;24.128;2023-02-23T00:33:41;102312.38;;;-6.73;100.00
7407;BME280;3745;56.964;24.128;2023-02-23T00:36:09;102305.13;;;-6.65;100.00
7407;BME280;3745;56.964;24.128;2023-02-23T00:38:36;102301.13;;;-6.71;100.00
7407;BME280;3745;56.964;24.128;2023-02-23T00:41:05;102312.38;;;-6.73;100.00
7407;BME280;3745;56.964;24.128;2023-02-23T00:43:39;102303.28;;;-6.74;100.00
7407;BME280;3745;56.964;24.128;2023-02-23T00:46:21;102213.03;;;-7.21;100.00
7407;BME280;3745;56.964;24.128;2023-02-23T00:48:48;102173.25;;;-7.48;100.00
7407;BME280;3745;56.964;24.128;2023-02-23T00:51:15;102298.16;;;-6.76;100.00
7407;BME280;3745;56.964;24.128;2023-02-23T00:53:41;102295.75;;;-6.83;100.00
7407;BME280;3745;56.964;24.128;2023-02-23T00:56:10;102208.63;;;-7.39;100.00
7407;BME280;3745;56.964;24.128;2023-02-23T00:58:36;102292.03;;;-6.79;100.00
7407;BME280;3745;56.964;24.128;2023-02-23T01:01:05;102193.22;;;-7.45;100.00
7407;BME280;3745;56.964;24.128;2023-02-23T01:03:31;102249.44;;;-7.09;100.00
7407;BME280;3745;56.964;24.128;2023-02-23T01:06:01;102285.94;;;-6.83;100.00
7407;BME280;3745;56.964;24.128;2023-02-23T01:08:30;102268.91;;;-7.04;100.00
7407;BME280;3745;56.964;24.128;2023-02-23T01:10:57;102296.31;;;-6.85;100.00
7407;BME280;3745;56.964;24.128;2023-02-23T01:13:23;102268.56;;;-6.84;100.00
7407;BME280;3745;56.964;24.128;2023-02-23T01:15:51;102259.19;;;-6.95;100.00
7407;BME280;3745;56.964;24.128;2023-02-23T01:18:19;102284.75;;;-6.86;100.00
7407;BME280;3745;56.964;24.128;2023-02-23T01:20:45;102256.13;;;-7.08;100.00
7407;BME280;3745;56.964;24.128;2023-02-23T01:23:12;102247.78;;;-7.18;100.00
7407;BME280;3745;56.964;24.128;2023-02-23T01:25:40;102262.69;;;-7.16;100.00
7407;BME280;3745;56.964;24.128;2023-02-23T01:28:08;102241.47;;;-7.23;100.00
7407;BME280;3745;56.964;24.128;2023-02-23T01:30:33;102282.03;;;-6.96;100.00
7407;BME280;3745;56.964;24.128;2023-02-23T01:32:59;102285.19;;;-6.97;100.00
7407;BME280;3745;56.964;24.128;2023-02-23T01:35:27;102252.97;;;-7.07;100.00
7407;BME280;3745;56.964;24.128;2023-02-23T01:37:52;102280.22;;;-6.90;100.00
7407;BME280;3745;56.964;24.128;2023-02-23T01:40:22;102279.19;;;-6.92;100.00
7407;BME280;3745;56.964;24.128;2023-02-23T01:43:27;102273.94;;;-6.95;100.00
7407;BME280;3745;56.964;24.128;2023-02-23T01:45:54;102272.28;;;-6.88;100.00
7407;BME280;3745;56.964;24.128;2023-02-23T01:48:22;102271.06;;;-6.91;100.00
7407;BME280;3745;56.964;24.128;2023-02-23T01:54:12;102269.66;;;-6.89;100.00
7407;BME280;3745;56.964;24.128;2023-02-23T01:56:43;102185.34;;;-7.27;100.00
7407;BME280;3745;56.964;24.128;2023-02-23T01:59:11;102264.75;;;-6.89;100.00
7407;BME280;3745;56.964;24.128;2023-02-23T02:01:40;102229.84;;;-7.17;100.00
7407;BME280;3745;56.964;24.128;2023-02-23T02:04:06;102213.88;;;-7.36;100.00
7407;BME280;3745;56.964;24.128;2023-02-23T02:06:34;102266.28;;;-7.05;100.00
7407;BME280;3745;56.964;24.128;2023-02-23T02:09:04;102268.44;;;-7.08;100.00
7407;BME280;3745;56.964;24.128;2023-02-23T02:11:33;102267.88;;;-7.06;100.00
7407;BME280;3745;56.964;24.128;2023-02-23T02:14:06;102261.94;;;-7.08;100.00
7407;BME280;3745;56.964;24.128;2023-02-23T02:28:40;102213.72;;;-7.22;100.00
7407;BME280;3745;56.964;24.128;2023-02-23T02:45:09;102199.69;;;-7.23;100.00
7407;BME280;3745;56.964;24.128;2023-02-23T02:47:47;102161.66;;;-7.49;100.00
7407;BME280;3745;56.964;24.128;2023-02-23T02:50:26;102193.41;;;-7.28;100.00
7407;BME280;3745;56.964;24.128;2023-02-23T02:53:08;102174.53;;;-7.36;100.00
7407;BME280;3745;56.964;24.128;2023-02-23T02:55:37;102226.28;;;-7.11;100.00
7407;BME280;3745;56.964;24.128;2023-02-23T02:58:05;102221.38;;;-7.11;100.00
7407;BME280;3745;56.964;24.128;2023-02-23T03:00:46;102192.38;;;-7.30;100.00
7407;BME280;3745;56.964;24.128;2023-02-23T03:03:41;102215.50;;;-7.21;100.00
7407;BME280;3745;56.964;24.128;2023-02-23T03:06:29;102206.72;;;-7.26;100.00
7407;BME280;3745;56.964;24.128;2023-02-23T03:12:35;102209.28;;;-7.33;100.00
7407;BME280;3745;56.964;24.128;2023-02-23T03:21:24;102221.94;;;-7.37;100.00
7407;BME280;3745;56.964;24.128;2023-02-23T03:24:25;102203.72;;;-7.39;100.00
7407;BME280;3745;56.964;24.128;2023-02-23T03:33:19;102192.91;;;-7.48;100.00
7407;BME280;3745;56.964;24.128;2023-02-23T03:36:14;102155.88;;;-7.72;100.00
7407;BME280;3745;56.964;24.128;2023-02-23T03:42:10;102157.06;;;-7.46;100.00
7407;BME280;3745;56.964;24.128;2023-02-23T03:44:56;102185.78;;;-7.38;100.00
7407;BME280;3745;56.964;24.128;2023-02-23T03:47:43;102184.78;;;-7.47;100.00
7407;BME280;3745;56.964;24.128;2023-02-23T03:50:36;102181.63;;;-7.46;100.00
7407;BME280;3745;56.964;24.128;2023-02-23T03:53:27;102147.13;;;-7.77;100.00
7407;BME280;3745;56.964;24.128;2023-02-23T03:56:17;102183.91;;;-7.63;100.00
7407;BME280;3745;56.964;24.128;2023-02-23T03:59:05;102187.97;;;-7.71;100.00
7407;BME280;3745;56.964;24.128;2023-02-23T04:01:52;102146.16;;;-7.86;100.00
7407;BME280;3745;56.964;24.128;2023-02-23T04:04:38;102178.56;;;-7.59;100.00
7407;BME280;3745;56.964;24.128;2023-02-23T04:07:23;102174.22;;;-7.61;100.00
7407;BME280;3745;56.964;24.128;2023-02-23T04:10:08;102172.34;;;-7.71;100.00
7407;BME280;3745;56.964;24.128;2023-02-23T04:18:22;102124.09;;;-7.93;100.00
7407;BME280;3745;56.964;24.128;2023-02-23T04:20:49;102176.13;;;-7.59;100.00
7407;BME280;3745;56.964;24.128;2023-02-23T04:23:15;102152.00;;;-7.70;100.00
7407;BME280;3745;56.964;24.128;2023-02-23T04:25:40;102136.97;;;-7.80;100.00
7407;BME280;3745;56.964;24.128;2023-02-23T04:28:06;102112.88;;;-7.91;100.00
7407;BME280;3745;56.964;24.128;2023-02-23T04:30:32;102149.53;;;-7.70;100.00
7407;BME280;3745;56.964;24.128;2023-02-23T04:32:57;102122.38;;;-7.94;100.00
7407;BME280;3745;56.964;24.128;2023-02-23T04:35:23;102144.72;;;-7.84;100.00
7407;BME280;3745;56.964;24.128;2023-02-23T04:37:51;102056.03;;;-8.33;100.00
7407;BME280;3745;56.964;24.128;2023-02-23T04:40:16;102144.34;;;-7.80;100.00
7407;BME280;3745;56.964;24.128;2023-02-23T04:42:42;102149.53;;;-7.70;100.00
7407;BME280;3745;56.964;24.128;2023-02-23T04:45:08;102143.53;;;-7.65;100.00
7407;BME280;3745;56.964;24.128;2023-02-23T04:47:34;102140.38;;;-7.64;100.00
7407;BME280;3745;56.964;24.128;2023-02-23T04:50:00;102130.63;;;-7.78;100.00
7407;BME280;3745;56.964;24.128;2023-02-23T04:52:26;102102.25;;;-7.83;100.00
7407;BME280;3745;56.964;24.128;2023-02-23T04:54:51;102126.28;;;-7.58;100.00
7407;BME280;3745;56.964;24.128;2023-02-23T04:57:17;102124.19;;;-7.62;100.00
7407;BME280;3745;56.964;24.128;2023-02-23T04:59:42;102109.78;;;-7.59;100.00
7407;BME280;3745;56.964;24.128;2023-02-23T05:02:08;102123.22;;;-7.71;100.00
7407;BME280;3745;56.964;24.128;2023-02-23T05:04:34;101963.09;;;-8.75;100.00
7407;BME280;3745;56.964;24.128;2023-02-23T05:07:00;102051.34;;;-8.15;100.00
7407;BME280;3745;56.964;24.128;2023-02-23T05:09:26;102031.69;;;-8.15;100.00
7407;BME280;3745;56.964;24.128;2023-02-23T05:11:51;102105.00;;;-7.73;100.00
7407;BME280;3745;56.964;24.128;2023-02-23T05:14:17;102114.88;;;-7.80;100.00
7407;BME280;3745;56.964;24.128;2023-02-23T05:16:42;102092.13;;;-7.86;100.00
7407;BME280;3745;56.964;24.128;2023-02-23T05:19:08;102014.22;;;-8.26;100.00
7407;BME280;3745;56.964;24.128;2023-02-23T05:21:34;102086.09;;;-7.81;100.00
7407;BME280;3745;56.964;24.128;2023-02-23T05:23:59;102090.59;;;-7.70;100.00
7407;BME280;3745;56.964;24.128;2023-02-23T05:26:25;102101.06;;;-7.64;100.00
7407;BME280;3745;56.964;24.128;2023-02-23T05:28:51;102093.00;;;-7.63;100.00
7407;BME280;3745;56.964;24.128;2023-02-23T05:31:16;102056.75;;;-7.95;100.00
7407;BME280;3745;56.964;24.128;2023-02-23T05:33:42;102112.56;;;-7.56;100.00
7407;BME280;3745;56.964;24.128;2023-02-23T05:36:12;102083.34;;;-7.69;100.00
7407;BME280;3745;56.964;24.128;2023-02-23T05:38:40;102079.31;;;-7.68;100.00
7407;BME280;3745;56.964;24.128;2023-02-23T05:41:10;102048.97;;;-7.69;100.00
7407;BME280;3745;56.964;24.128;2023-02-23T05:43:36;102034.38;;;-7.83;100.00
7407;BME280;3745;56.964;24.128;2023-02-23T05:46:12;102073.41;;;-7.54;100.00
7407;BME280;3745;56.964;24.128;2023-02-23T05:48:39;102098.88;;;-7.54;100.00
7407;BME280;3745;56.964;24.128;2023-02-23T05:51:09;102095.69;;;-7.53;100.00
7407;BME280;3745;56.964;24.128;2023-02-23T05:53:35;102100.28;;;-7.56;100.00
7407;BME280;3745;56.964;24.128;2023-02-23T05:56:02;102095.75;;;-7.44;100.00
7407;BME280;3745;56.964;24.128;2023-02-23T05:58:28;102092.69;;;-7.35;100.00
7407;BME280;3745;56.964;24.128;2023-02-23T06:00:54;102021.53;;;-7.80;100.00
7407;BME280;3745;56.964;24.128;2023-02-23T06:03:19;102098.56;;;-7.26;100.00
7407;BME280;3745;56.964;24.128;2023-02-23T06:05:54;101993.75;;;-7.72;100.00
7407;BME280;3745;56.964;24.128;2023-02-23T06:08:21;102056.56;;;-7.36;100.00
7407;BME280;3745;56.964;24.128;2023-02-23T06:10:47;102036.56;;;-7.39;100.00
7407;BME280;3745;56.964;24.128;2023-02-23T06:13:13;102085.19;;;-7.05;100.00
7407;BME280;3745;56.964;24.128;2023-02-23T06:15:39;102052.16;;;-7.23;100.00
7407;BME280;3745;56.964;24.128;2023-02-23T06:18:06;102033.06;;;-7.41;100.00
7407;BME280;3745;56.964;24.128;2023-02-23T06:20:34;102027.69;;;-7.30;100.00
7407;BME280;3745;56.964;24.128;2023-02-23T06:23:00;102071.13;;;-6.90;100.00
7407;BME280;3745;56.964;24.128;2023-02-23T06:25:26;102073.03;;;-7.03;100.00
7407;BME280;3745;56.964;24.128;2023-02-23T06:27:51;102031.47;;;-7.25;100.00
7407;BME280;3745;56.964;24.128;2023-02-23T06:30:18;102041.38;;;-7.16;100.00
7407;BME280;3745;56.964;24.128;2023-02-23T06:32:43;102078.56;;;-6.97;100.00
7407;BME280;3745;56.964;24.128;2023-02-23T06:35:09;102014.44;;;-7.39;100.00
7407;BME280;3745;56.964;24.128;2023-02-23T06:37:34;102070.25;;;-6.91;100.00
7407;BME280;3745;56.964;24.128;2023-02-23T06:40:01;102044.75;;;-6.91;100.00
7407;BME280;3745;56.964;24.128;2023-02-23T06:42:27;102065.38;;;-6.82;100.00
7407;BME280;3745;56.964;24.128;2023-02-23T06:44:53;101916.72;;;-7.57;100.00
7407;BME280;3745;56.964;24.128;2023-02-23T06:47:21;101927.88;;;-7.36;100.00
7407;BME280;3745;56.964;24.128;2023-02-23T06:49:47;101957.41;;;-7.28;100.00
7407;BME280;3745;56.964;24.128;2023-02-23T06:52:13;102055.69;;;-6.65;100.00
7407;BME280;3745;56.964;24.128;2023-02-23T06:54:39;101929.03;;;-7.33;100.00
7407;BME280;3745;56.964;24.128;2023-02-23T06:57:06;102018.63;;;-6.82;100.00
7407;BME280;3745;56.964;24.128;2023-02-23T06:59:32;101966.75;;;-7.17;100.00
7407;BME280;3745;56.964;24.128;2023-02-23T07:01:58;101884.53;;;-7.67;100.00
7407;BME280;3745;56.964;24.128;2023-02-23T07:04:23;102003.16;;;-6.81;100.00
7407;BME280;3745;56.964;24.128;2023-02-23T07:06:50;102047.69;;;-6.47;100.00
7407;BME280;3745;56.964;24.128;2023-02-23T07:09:16;101996.31;;;-6.68;100.00
7407;BME280;3745;56.964;24.128;2023-02-23T07:11:41;102021.94;;;-6.42;100.00
7407;BME280;3745;56.964;24.128;2023-02-23T07:14:12;102025.75;;;-6.37;100.00
7407;BME280;3745;56.964;24.128;2023-02-23T07:16:37;101985.31;;;-6.63;100.00
7407;BME280;3745;56.964;24.128;2023-02-23T07:19:05;101944.81;;;-6.58;100.00
7407;BME280;3745;56.964;24.128;2023-02-23T07:21:32;102027.56;;;-6.19;100.00
7407;BME280;3745;56.964;24.128;2023-02-23T07:23:58;102011.63;;;-6.14;100.00
7407;BME280;3745;56.964;24.128;2023-02-23T07:26:24;102028.63;;;-5.99;100.00
7407;BME280;3745;56.964;24.128;2023-02-23T07:28:50;101980.31;;;-6.15;100.00
7407;BME280;3745;56.964;24.128;2023-02-23T07:31:16;102005.31;;;-5.77;100.00
7407;BME280;3745;56.964;24.128;2023-02-23T07:33:42;102025.03;;;-5.77;100.00
7407;BME280;3745;56.964;24.128;2023-02-23T07:36:08;101965.53;;;-6.15;100.00
7407;BME280;3745;56.964;24.128;2023-02-23T07:38:34;101909.56;;;-6.33;100.00
7407;BME280;3745;56.964;24.128;2023-02-23T07:41:01;102026.81;;;-5.59;100.00
7407;BME280;3745;56.964;24.128;2023-02-23T07:43:27;102012.06;;;-5.42;100.00
7407;BME280;3745;56.964;24.128;2023-02-23T07:45:53;102014.66;;;-5.32;100.00
7407;BME280;3745;56.964;24.128;2023-02-23T07:48:19;101894.88;;;-5.90;100.00
7407;BME280;3745;56.964;24.128;2023-02-23T07:50:45;101981.91;;;-5.31;100.00
7407;BME280;3745;56.964;24.128;2023-02-23T07:53:11;101962.47;;;-5.36;100.00
7407;BME280;3745;56.964;24.128;2023-02-23T07:55:37;101912.84;;;-5.65;100.00
7407;BME280;3745;56.964;24.128;2023-02-23T07:58:03;101968.56;;;-5.33;100.00
7407;BME280;3745;56.964;24.128;2023-02-23T08:00:30;101984.50;;;-5.04;100.00
7407;BME280;3745;56.964;24.128;2023-02-23T08:02:57;101919.09;;;-5.43;100.00
7407;BME280;3745;56.964;24.128;2023-02-23T08:05:24;101930.56;;;-5.52;100.00
7407;BME280;3745;56.964;24.128;2023-02-23T08:07:50;101968.81;;;-5.04;100.00
7407;BME280;3745;56.964;24.128;2023-02-23T08:10:16;101944.16;;;-5.13;100.00
7407;BME280;3745;56.964;24.128;2023-02-23T08:12:43;101975.19;;;-4.80;100.00
7407;BME280;3745;56.964;24.128;2023-02-23T08:15:08;101973.44;;;-4.81;100.00
7407;BME280;3745;56.964;24.128;2023-02-23T08:17:38;101866.44;;;-5.43;100.00
7407;BME280;3745;56.964;24.128;2023-02-23T08:20:05;101907.28;;;-5.03;100.00
7407;BME280;3745;56.964;24.128;2023-02-23T08:22:31;101949.66;;;-4.89;100.00
7407;BME280;3745;56.964;24.128;2023-02-23T08:24:57;101917.44;;;-5.00;100.00
7407;BME280;3745;56.964;24.128;2023-02-23T08:27:23;101967.84;;;-4.53;100.00
7407;BME280;3745;56.964;24.128;2023-02-23T08:29:49;101953.59;;;-4.47;100.00
7407;BME280;3745;56.964;24.128;2023-02-23T08:32:18;101901.78;;;-4.64;100.00
7407;BME280;3745;56.964;24.128;2023-02-23T08:34:43;101937.50;;;-4.25;100.00
7407;BME280;3745;56.964;24.128;2023-02-23T08:37:10;101813.38;;;-4.68;100.00
7407;BME280;3745;56.964;24.128;2023-02-23T08:39:36;101928.34;;;-3.99;100.00
7407;BME280;3745;56.964;24.128;2023-02-23T08:42:03;101918.78;;;-4.04;100.00
7407;BME280;3745;56.964;24.128;2023-02-23T08:44:29;101932.75;;;-4.05;100.00
7407;BME280;3745;56.964;24.128;2023-02-23T08:46:54;101936.31;;;-3.74;100.00
7407;BME280;3745;56.964;24.128;2023-02-23T08:49:23;101834.94;;;-4.30;100.00
7407;BME280;3745;56.964;24.128;2023-02-23T08:51:49;101923.97;;;-3.55;100.00
7407;BME280;3745;56.964;24.128;2023-02-23T08:54:14;101927.91;;;-3.95;100.00
7407;BME280;3745;56.964;24.128;2023-02-23T08:56:43;101890.81;;;-3.95;100.00
7407;BME280;3745;56.964;24.128;2023-02-23T08:59:10;101916.69;;;-3.54;100.00
7407;BME280;3745;56.964;24.128;2023-02-23T09:01:39;101799.44;;;-4.22;100.00
7407;BME280;3745;56.964;24.128;2023-02-23T09:04:06;101854.00;;;-3.92;100.00
7407;BME280;3745;56.964;24.128;2023-02-23T09:06:32;101920.88;;;-3.71;100.00
7407;BME280;3745;56.964;24.128;2023-02-23T09:09:00;101890.69;;;-3.77;100.00
7407;BME280;3745;56.964;24.128;2023-02-23T09:11:26;101907.66;;;-3.53;100.00
7407;BME280;3745;56.964;24.128;2023-02-23T09:13:51;101651.22;;;-4.97;100.00
7407;BME280;3745;56.964;24.128;2023-02-23T09:16:17;101858.19;;;-3.53;100.00
7407;BME280;3745;56.964;24.128;2023-02-23T09:18:43;101850.03;;;-3.52;100.00
7407;BME280;3745;56.964;24.128;2023-02-23T09:21:17;101857.13;;;-3.65;100.00
7407;BME280;3745;56.964;24.128;2023-02-23T09:23:45;101899.94;;;-3.38;100.00
7407;BME280;3745;56.964;24.128;2023-02-23T09:26:14;101868.75;;;-3.64;100.00
7407;BME280;3745;56.964;24.128;2023-02-23T09:28:41;101832.13;;;-3.68;100.00
7407;BME280;3745;56.964;24.128;2023-02-23T09:31:09;101856.56;;;-3.34;100.00
7407;BME280;3745;56.964;24.128;2023-02-23T09:33:35;101884.66;;;-2.95;100.00
7407;BME280;3745;56.964;24.128;2023-02-23T09:36:21;101882.44;;;-3.02;100.00
7407;BME280;3745;56.964;24.128;2023-02-23T09:38:49;101881.03;;;-3.37;100.00
7407;BME280;3745;56.964;24.128;2023-02-23T09:44:02;101844.50;;;-3.21;100.00
7407;BME280;3745;56.964;24.128;2023-02-23T09:49:26;101871.00;;;-2.71;100.00
7407;BME280;3745;56.964;24.128;2023-02-23T09:51:55;101866.16;;;-2.69;100.00
7407;BME280;3745;56.964;24.128;2023-02-23T09:54:26;101840.13;;;-2.85;100.00
7407;BME280;3745;56.964;24.128;2023-02-23T09:56:54;101858.22;;;-2.76;100.00
7407;BME280;3745;56.964;24.128;2023-02-23T09:59:23;101850.56;;;-2.68;100.00
7407;BME280;3745;56.964;24.128;2023-02-23T10:04:44;101849.84;;;-2.57;100.00
7407;BME280;3745;56.964;24.128;2023-02-23T10:08:02;101824.09;;;-2.49;100.00
7407;BME280;3745;56.964;24.128;2023-02-23T10:10:41;101810.91;;;-2.79;100.00
7407;BME280;3745;56.964;24.128;2023-02-23T10:13:18;101843.66;;;-2.42;100.00
7407;BME280;3745;56.964;24.128;2023-02-23T10:15:52;101753.47;;;-2.85;100.00
7407;BME280;3745;56.964;24.128;2023-02-23T10:18:45;101825.34;;;-2.34;100.00
7407;BME280;3745;56.964;24.128;2023-02-23T10:21:30;101685.84;;;-3.04;100.00
7407;BME280;3745;56.964;24.128;2023-02-23T10:24:20;101820.59;;;-2.11;100.00
7407;BME280;3745;56.964;24.128;2023-02-23T10:26:51;101816.63;;;-1.99;100.00
7407;BME280;3745;56.964;24.128;2023-02-23T10:30:03;101813.91;;;-2.12;100.00
7407;BME280;3745;56.964;24.128;2023-02-23T10:32:24;101710.63;;;-2.63;100.00
7407;BME280;3745;56.964;24.128;2023-02-23T10:34:56;101545.06;;;-3.71;100.00
7407;BME280;3745;56.964;24.128;2023-02-23T10:37:23;101499.06;;;-3.90;100.00
7407;BME280;3745;56.964;24.128;2023-02-23T10:39:49;101601.72;;;-3.34;100.00
7407;BME280;3745;56.964;24.128;2023-02-23T10:42:28;101677.69;;;-2.83;100.00
7407;BME280;3745;56.964;24.128;2023-02-23T10:44:55;101792.84;;;-2.07;100.00
7407;BME280;3745;56.964;24.128;2023-02-23T10:47:25;101620.72;;;-2.72;100.00
7407;BME280;3745;56.964;24.128;2023-02-23T10:49:53;101778.38;;;-1.81;100.00
7407;BME280;3745;56.964;24.128;2023-02-23T10:55:03;101743.81;;;-1.57;100.00
7407;BME280;3745;56.964;24.128;2023-02-23T10:57:31;101547.22;;;-2.52;100.00
7407;BME280;3745;56.964;24.128;2023-02-23T11:02:33;101570.47;;;-2.18;100.00
7407;BME280;3745;56.964;24.128;2023-02-23T11:05:03;101546.44;;;-2.41;100.00
7407;BME280;3745;56.964;24.128;2023-02-23T11:07:30;101558.22;;;-2.48;100.00
7407;BME280;3745;56.964;24.128;2023-02-23T11:10:32;101734.13;;;-1.54;100.00
7407;BME280;3745;56.964;24.128;2023-02-23T11:12:58;101457.66;;;-3.10;100.00
7407;BME280;3745;56.964;24.128;2023-02-23T11:20:41;101586.53;;;-2.66;100.00
7407;BME280;3745;56.964;24.128;2023-02-23T11:23:27;101652.81;;;-2.22;100.00
7407;BME280;3745;56.964;24.128;2023-02-23T11:25:55;101705.19;;;-1.76;100.00
7407;BME280;3745;56.964;24.128;2023-02-23T11:28:40;101495.88;;;-2.96;100.00
7407;BME280;3745;56.964;24.128;2023-02-23T11:31:17;101408.63;;;-3.36;100.00
7407;BME280;3745;56.964;24.128;2023-02-23T11:33:44;101693.38;;;-1.46;100.00
7407;BME280;3745;56.964;24.128;2023-02-23T11:38:46;101508.00;;;-2.14;100.00
7407;BME280;3745;56.964;24.128;2023-02-23T11:41:23;101486.88;;;-2.09;100.00
7407;BME280;3745;56.964;24.128;2023-02-23T11:43:58;101624.56;;;-1.37;100.00
7407;BME280;3745;56.964;24.128;2023-02-23T11:46:37;101505.81;;;-2.21;100.00
7407;BME280;3745;56.964;24.128;2023-02-23T11:49:20;101556.44;;;-1.86;100.00
7407;BME280;3745;56.964;24.128;2023-02-23T11:51:55;101632.16;;;-1.24;100.00
7407;BME280;3745;56.964;24.128;2023-02-23T11:54:33;101486.66;;;-2.12;100.00
7407;BME280;3745;56.964;24.128;2023-02-23T11:57:07;101460.38;;;-2.10;100.00
7407;BME280;3745;56.964;24.128;2023-02-23T11:59:39;101523.44;;;-1.85;100.00
7407;BME280;3745;56.964;24.128;2023-02-23T12:06:21;101326.94;;;-3.25;100.00
7407;BME280;3745;56.964;24.128;2023-02-23T12:08:47;101411.19;;;-2.70;100.00
7407;BME280;3745;56.964;24.128;2023-02-23T12:11:21;101618.06;;;-1.47;100.00
7407;BME280;3745;56.964;24.128;2023-02-23T12:14:36;101416.59;;;-2.64;100.00
7407;BME280;3745;56.964;24.128;2023-02-23T12:17:28;101482.38;;;-2.03;100.00
7407;BME280;3745;56.964;24.128;2023-02-23T12:20:26;101603.69;;;-1.18;100.00
7407;BME280;3745;56.964;24.128;2023-02-23T12:22:57;101614.06;;;-1.23;100.00
7407;BME280;3745;56.964;24.128;2023-02-23T12:27:59;101489.03;;;-1.92;100.00
7407;BME280;3745;56.964;24.128;2023-02-23T12:30:41;101476.00;;;-2.11;100.00
7407;BME280;3745;56.964;24.128;2023-02-23T12:33:38;101535.91;;;-1.61;100.00
7407;BME280;3745;56.964;24.128;2023-02-23T12:41:17;101543.81;;;-1.44;100.00
7407;BME280;3745;56.964;24.128;2023-02-23T12:46:34;101556.41;;;-1.19;100.00
7407;BME280;3745;56.964;24.128;2023-02-23T12:49:35;101326.00;;;-2.51;100.00
7407;BME280;3745;56.964;24.128;2023-02-23T12:52:19;101549.28;;;-1.03;100.00
7407;BME280;3745;56.964;24.128;2023-02-23T12:54:46;101540.88;;;-0.82;100.00
7407;BME280;3745;56.964;24.128;2023-02-23T13:03:57;101519.91;;;-0.85;100.00
7407;BME280;3745;56.964;24.128;2023-02-23T13:12:19;101460.34;;;-1.20;100.00
7407;BME280;3745;56.964;24.128;2023-02-23T13:17:53;101318.66;;;-1.93;100.00
7407;BME280;3745;56.964;24.128;2023-02-23T13:20:59;101341.53;;;-1.74;100.00
7407;BME280;3745;56.964;24.128;2023-02-23T13:23:33;101481.28;;;-0.93;100.00
7407;BME280;3745;56.964;24.128;2023-02-23T13:35:04;101243.72;;;-2.12;100.00
7407;BME280;3745;56.964;24.128;2023-02-23T13:37:49;101460.75;;;-0.91;100.00
7407;BME280;3745;56.964;24.128;2023-02-23T13:43:26;101451.47;;;-0.93;100.00
7407;BME280;3745;56.964;24.128;2023-02-23T13:46:27;101446.50;;;-1.05;100.00
7407;BME280;3745;56.964;24.128;2023-02-23T13:51:48;101428.13;;;-1.07;100.00
7407;BME280;3745;56.964;24.128;2023-02-23T13:56:53;101381.31;;;-1.37;100.00
7407;BME280;3745;56.964;24.128;2023-02-23T13:59:28;101360.41;;;-1.41;100.00
7407;BME280;3745;56.964;24.128;2023-02-23T14:01:55;101131.03;;;-2.87;100.00
7407;BME280;3745;56.964;24.128;2023-02-23T14:04:56;101396.88;;;-1.28;100.00
7407;BME280;3745;56.964;24.128;2023-02-23T14:07:29;101394.72;;;-1.24;100.00
7407;BME280;3745;56.964;24.128;2023-02-23T14:10:06;101230.81;;;-2.08;100.00
7407;BME280;3745;56.964;24.128;2023-02-23T14:12:41;101282.13;;;-1.84;100.00
7407;BME280;3745;56.964;24.128;2023-02-23T14:18:04;101309.69;;;-1.44;100.00
7407;BME280;3745;56.964;24.128;2023-02-23T14:20:53;101366.97;;;-1.18;100.00
7407;BME280;3745;56.964;24.128;2023-02-23T14:29:09;101354.69;;;-0.92;100.00
7407;BME280;3745;56.964;24.128;2023-02-23T14:34:54;101327.94;;;-0.96;100.00
7407;BME280;3745;56.964;24.128;2023-02-23T14:37:30;101345.75;;;-0.90;100.00
7407;BME280;3745;56.964;24.128;2023-02-23T14:42:33;101301.22;;;-0.87;100.00
7407;BME280;3745;56.964;24.128;2023-02-23T14:45:04;101253.91;;;-1.13;100.00
7407;BME280;3745;56.964;24.128;2023-02-23T14:47:43;101301.78;;;-0.91;100.00
7407;BME280;3745;56.964;24.128;2023-02-23T14:50:15;101267.94;;;-1.02;100.00
7407;BME280;3745;56.964;24.128;2023-02-23T14:52:43;101307.34;;;-0.82;100.00
7407;BME280;3745;56.964;24.128;2023-02-23T14:55:25;101306.59;;;-0.81;100.00
7407;BME280;3745;56.964;24.128;2023-02-23T14:57:50;101257.59;;;-1.20;100.00
7407;BME280;3745;56.964;24.128;2023-02-23T15:00:28;101296.81;;;-0.91;100.00
7407;BME280;3745;56.964;24.128;2023-02-23T15:03:03;101293.38;;;-0.93;100.00
7407;BME280;3745;56.964;24.128;2023-02-23T15:05:45;101258.69;;;-1.16;100.00
7407;BME280;3745;56.964;24.128;2023-02-23T15:08:16;101166.88;;;-1.52;100.00
7407;BME280;3745;56.964;24.128;2023-02-23T15:10:46;101186.00;;;-1.38;100.00
7407;BME280;3745;56.964;24.128;2023-02-23T15:13:35;101280.97;;;-0.80;100.00
7407;BME280;3745;56.964;24.128;2023-02-23T15:16:15;100909.56;;;-3.15;100.00
7407;BME280;3745;56.964;24.128;2023-02-23T15:18:43;101261.53;;;-1.23;100.00
7407;BME280;3745;56.964;24.128;2023-02-23T15:21:17;101179.66;;;-1.71;100.00
7407;BME280;3745;56.964;24.128;2023-02-23T15:23:49;101266.69;;;-1.20;100.00
7407;BME280;3745;56.964;24.128;2023-02-23T15:28:51;101263.44;;;-1.19;100.00
7407;BME280;3745;56.964;24.128;2023-02-23T15:31:18;101219.94;;;-1.39;100.00
7407;BME280;3745;56.964;24.128;2023-02-23T15:33:44;101248.94;;;-1.13;100.00